Time;durP1;ratioP1;P1;durP2;ratioP2;P2;SDS_P1;SDS_P2;PMS_P1;PMS_P2;Temp;Humidity;BMP_temperature;BMP_pressure;BME280_temperature;BME280_humidity;BME280_pressure;Samples;Min_cycle;Max_cycle;Signal;HPM_P1;HPM_P2
2021/10/29 00:01:57;;;;;;;26.70;17.73;;;8.30;99.90;;;;;;5091873;28;20184;-64
2021/10/29 00:04:22;;;;;;;25.10;16.90;;;8.30;99.90;;;;;;5091945;28;20658;-65
2021/10/29 00:06:48;;;;;;;27.17;18.07;;;8.30;99.90;;;;;;5091861;28;20227;-64
2021/10/29 00:09:14;;;;;;;30.77;19.13;;;8.30;99.90;;;;;;5091738;28;20165;-64
2021/10/29 00:11:39;;;;;;;30.60;18.37;;;8.30;99.90;;;;;;5090027;28;20256;-65
2021/10/29 00:14:05;;;;;;;24.07;18.40;;;8.30;99.90;;;;;;5090907;28;20215;-64
2021/10/29 00:16:31;;;;;;;29.13;19.00;;;8.30;99.90;;;;;;5090057;28;20312;-65
2021/10/29 00:18:56;;;;;;;22.73;19.47;;;8.30;99.90;;;;;;5091777;28;20614;-65
2021/10/29 00:21:22;;;;;;;22.23;18.10;;;8.30;99.90;;;;;;5091189;28;20196;-64
2021/10/29 00:23:47;;;;;;;25.77;17.87;;;8.40;99.90;;;;;;5091469;28;20208;-65
2021/10/29 00:26:13;;;;;;;22.00;16.43;;;8.40;99.90;;;;;;5091366;28;20177;-64
2021/10/29 00:28:39;;;;;;;27.10;18.50;;;8.40;99.90;;;;;;5091392;28;20636;-64
2021/10/29 00:31:05;;;;;;;26.43;19.10;;;8.40;99.90;;;;;;5090958;28;20177;-65
2021/10/29 00:33:30;;;;;;;27.30;17.63;;;8.50;99.90;;;;;;5091530;28;20252;-64
2021/10/29 00:35:56;;;;;;;28.17;18.70;;;8.50;99.90;;;;;;5091420;28;20189;-65
2021/10/29 00:38:21;;;;;;;26.27;17.67;;;8.50;99.90;;;;;;5091649;28;20231;-64
2021/10/29 00:40:48;;;;;;;30.53;18.70;;;8.50;99.90;;;;;;5091026;28;20568;-64
2021/10/29 00:43:14;;;;;;;25.80;17.97;;;8.50;99.90;;;;;;5091320;28;20165;-64
2021/10/29 00:45:40;;;;;;;30.83;18.80;;;8.50;99.90;;;;;;5091137;28;20737;-64
2021/10/29 00:48:06;;;;;;;27.77;19.30;;;8.40;99.90;;;;;;5091521;28;20287;-64
2021/10/29 00:50:32;;;;;;;22.13;17.93;;;8.40;99.90;;;;;;5090946;28;20170;-64
2021/10/29 00:52:58;;;;;;;23.50;16.93;;;8.40;99.90;;;;;;5091420;28;20180;-64
2021/10/29 00:55:24;;;;;;;23.80;17.67;;;8.40;99.90;;;;;;5090925;28;20193;-64
2021/10/29 00:57:51;;;;;;;24.77;17.20;;;8.40;99.90;;;;;;5091399;28;20162;-64
2021/10/29 01:00:18;;;;;;;25.60;17.17;;;8.40;99.90;;;;;;5090963;28;20182;-64
2021/10/29 01:02:44;;;;;;;27.87;18.13;;;8.40;99.90;;;;;;5091309;28;20181;-64
2021/10/29 01:05:10;;;;;;;26.77;17.77;;;8.40;99.90;;;;;;5090041;28;20239;-64
2021/10/29 01:07:37;;;;;;;23.20;18.50;;;8.40;99.90;;;;;;5090771;28;20201;-64
2021/10/29 01:10:04;;;;;;;25.53;18.37;;;8.40;99.90;;;;;;5091181;28;20162;-64
2021/10/29 01:12:29;;;;;;;25.07;17.07;;;8.40;99.90;;;;;;5090861;28;20634;-64
2021/10/29 01:15:00;;;;;;;22.57;16.57;;;8.40;99.90;;;;;;5091222;28;20190;-64
2021/10/29 01:17:26;;;;;;;27.73;17.97;;;8.40;99.90;;;;;;5090987;28;20205;-64
2021/10/29 01:19:55;;;;;;;24.10;17.27;;;8.30;99.90;;;;;;5090878;28;20173;-64
2021/10/29 01:22:22;;;;;;;31.03;19.10;;;8.30;99.90;;;;;;5090960;28;20295;-64
2021/10/29 01:24:49;;;;;;;21.53;17.00;;;8.30;99.90;;;;;;5092348;28;20556;-65
2021/10/29 01:27:16;;;;;;;26.77;17.50;;;8.30;99.90;;;;;;5094480;28;20201;-64
2021/10/29 01:29:44;;;;;;;24.07;16.83;;;8.30;99.90;;;;;;5094653;28;20241;-64
2021/10/29 01:32:10;;;;;;;26.67;17.43;;;8.20;99.90;;;;;;5094772;28;20223;-64
2021/10/29 01:34:37;;;;;;;24.83;18.00;;;8.20;99.90;;;;;;5094175;28;20197;-65
2021/10/29 01:37:07;;;;;;;27.30;16.20;;;8.20;99.90;;;;;;5094324;28;20204;-65
2021/10/29 01:39:35;;;;;;;21.37;15.97;;;8.20;99.90;;;;;;5094064;28;20201;-64
2021/10/29 01:42:00;;;;;;;23.03;16.97;;;8.20;99.90;;;;;;5094185;28;20178;-64
2021/10/29 01:44:26;;;;;;;29.43;17.37;;;8.20;99.90;;;;;;5094221;28;20712;-64
2021/10/29 01:46:51;;;;;;;23.40;16.17;;;8.20;99.90;;;;;;5094092;28;20209;-65
2021/10/29 01:49:18;;;;;;;24.40;16.80;;;8.20;99.90;;;;;;5093876;28;20170;-64
2021/10/29 01:51:44;;;;;;;28.07;17.13;;;8.20;99.90;;;;;;5093891;28;20177;-64
2021/10/29 01:54:11;;;;;;;25.17;16.10;;;8.20;99.90;;;;;;5094105;28;20193;-64
2021/10/29 01:56:38;;;;;;;18.33;15.83;;;8.20;99.90;;;;;;5093566;28;20213;-64
2021/10/29 01:59:04;;;;;;;27.70;16.57;;;8.20;99.90;;;;;;5093949;28;20201;-65
2021/10/29 02:01:30;;;;;;;24.03;16.73;;;8.10;99.90;;;;;;5093188;28;20181;-64
2021/10/29 02:03:56;;;;;;;19.67;14.87;;;8.10;99.90;;;;;;5093982;28;20166;-65
2021/10/29 02:06:21;;;;;;;22.43;15.07;;;8.10;99.90;;;;;;5093799;28;20590;-65
2021/10/29 02:08:47;;;;;;;23.67;17.00;;;8.20;99.90;;;;;;5093443;28;20201;-65
2021/10/29 02:11:13;;;;;;;26.50;16.30;;;8.10;99.90;;;;;;5092893;28;20240;-65
2021/10/29 02:13:39;;;;;;;21.87;15.70;;;8.20;99.90;;;;;;5094765;28;20689;-68
2021/10/29 02:16:05;;;;;;;20.63;14.70;;;8.20;99.90;;;;;;5094963;28;20197;-69
2021/10/29 02:18:31;;;;;;;18.93;14.50;;;8.30;99.90;;;;;;5095088;28;20188;-67
2021/10/29 02:20:57;;;;;;;18.47;16.07;;;8.30;99.90;;;;;;5095135;28;20170;-67
2021/10/29 02:23:23;;;;;;;20.30;15.97;;;8.30;99.90;;;;;;5093719;28;20223;-68
2021/10/29 02:25:49;;;;;;;20.80;15.63;;;8.40;99.90;;;;;;5095003;28;20190;-67
2021/10/29 02:28:17;;;;;;;18.80;15.97;;;8.40;99.90;;;;;;5094947;28;20459;-68
2021/10/29 02:30:45;;;;;;;19.73;17.37;;;8.40;99.90;;;;;;5093262;28;20631;-68
2021/10/29 02:33:11;;;;;;;20.67;16.50;;;8.40;99.90;;;;;;5094496;28;20166;-68
2021/10/29 02:35:37;;;;;;;26.17;17.27;;;8.40;99.90;;;;;;5094394;28;20197;-66
2021/10/29 02:38:02;;;;;;;22.17;16.53;;;8.40;99.90;;;;;;5094252;28;20187;-68
2021/10/29 02:40:29;;;;;;;19.40;15.73;;;8.40;99.90;;;;;;5094475;28;20196;-66
2021/10/29 02:42:54;;;;;;;24.30;16.93;;;8.40;99.90;;;;;;5094474;28;20185;-67
2021/10/29 02:45:20;;;;;;;22.10;16.83;;;8.40;99.90;;;;;;5094343;28;20201;-67
2021/10/29 02:47:47;;;;;;;19.87;16.07;;;8.40;99.90;;;;;;5093965;28;20732;-69
2021/10/29 02:50:18;;;;;;;18.73;15.07;;;8.40;99.90;;;;;;5094113;28;20185;-68
2021/10/29 02:52:44;;;;;;;20.57;15.43;;;8.30;99.90;;;;;;5094176;28;20568;-66
2021/10/29 02:55:11;;;;;;;21.57;15.63;;;8.40;99.90;;;;;;5094532;28;20231;-65
2021/10/29 02:57:37;;;;;;;20.70;15.03;;;8.30;99.90;;;;;;5093898;28;20646;-69
2021/10/29 03:00:08;;;;;;;23.93;16.03;;;8.30;99.90;;;;;;5094361;28;20256;-67
2021/10/29 03:02:35;;;;;;;23.60;15.80;;;8.30;99.90;;;;;;5093877;28;20269;-67
2021/10/29 03:05:02;;;;;;;18.97;16.13;;;8.30;99.90;;;;;;5094212;28;20592;-70
2021/10/29 03:07:28;;;;;;;21.07;15.63;;;8.30;99.90;;;;;;5088594;28;20205;-66
2021/10/29 03:09:54;;;;;;;22.93;15.33;;;8.30;99.90;;;;;;5073591;28;20229;-67
2021/10/29 03:12:20;;;;;;;23.30;16.67;;;8.30;99.90;;;;;;5091188;28;20739;-67
2021/10/29 03:14:45;;;;;;;23.60;16.90;;;8.30;99.90;;;;;;5093721;28;20193;-68
2021/10/29 03:17:11;;;;;;;22.37;15.93;;;8.30;99.90;;;;;;5089085;28;20216;-68
2021/10/29 03:19:37;;;;;;;21.47;16.00;;;8.30;99.90;;;;;;5073178;28;20166;-66
2021/10/29 03:22:03;;;;;;;21.63;16.30;;;8.30;99.90;;;;;;5086444;28;20217;-67
2021/10/29 03:24:29;;;;;;;24.63;16.57;;;8.30;99.90;;;;;;5093654;28;20193;-68
2021/10/29 03:26:55;;;;;;;20.80;14.97;;;8.20;99.90;;;;;;5093436;28;20214;-68
2021/10/29 03:29:21;;;;;;;25.90;16.67;;;8.20;99.90;;;;;;5093377;28;20262;-68
2021/10/29 03:31:46;;;;;;;19.77;16.53;;;8.20;99.90;;;;;;5093602;28;20208;-69
2021/10/29 03:34:12;;;;;;;19.67;16.23;;;8.20;99.90;;;;;;5093457;28;20204;-69
2021/10/29 03:36:39;;;;;;;21.50;15.53;;;8.20;99.90;;;;;;5092389;28;20169;-70
2021/10/29 03:39:07;;;;;;;19.23;15.67;;;8.20;99.90;;;;;;5093391;28;20161;-66
2021/10/29 03:41:37;;;;;;;22.90;15.70;;;8.10;99.90;;;;;;5092717;28;20181;-65
2021/10/29 03:44:19;;;;;;;19.17;15.17;;;8.10;99.90;;;;;;5093101;28;20201;-68
2021/10/29 03:46:45;;;;;;;25.23;16.23;;;8.10;99.90;;;;;;5137863;22;20237;-69
2021/10/29 03:51:44;;;;;;;23.17;15.43;;;8.10;99.90;;;;;;5091437;28;20222;-65
2021/10/29 03:54:20;;;;;;;18.57;15.60;;;8.10;99.90;;;;;;5092028;28;20173;-62
2021/10/29 03:56:56;;;;;;;21.13;16.47;;;8.10;99.90;;;;;;5071530;28;20247;-62
2021/10/29 03:59:22;;;;;;;23.23;16.43;;;8.00;99.90;;;;;;5071581;28;20162;-65
2021/10/29 04:01:47;;;;;;;27.30;17.20;;;8.00;99.90;;;;;;5071658;28;20186;-65
2021/10/29 04:04:13;;;;;;;22.97;16.50;;;8.10;99.90;;;;;;5071794;28;20214;-65
2021/10/29 04:06:38;;;;;;;24.63;16.03;;;8.00;99.90;;;;;;5071503;28;20292;-63
2021/10/29 04:09:04;;;;;;;21.30;16.33;;;8.10;99.90;;;;;;5071565;28;20276;-62
2021/10/29 04:11:36;;;;;;;22.03;15.27;;;8.10;99.90;;;;;;5071724;28;20170;-63
2021/10/29 04:14:05;;;;;;;19.60;14.83;;;8.10;99.90;;;;;;5051779;28;20175;-63
2021/10/29 04:16:33;;;;;;;24.77;16.37;;;8.10;99.90;;;;;;5051737;28;20186;-63
2021/10/29 04:18:59;;;;;;;25.27;16.57;;;8.10;99.90;;;;;;5070886;28;20219;-63
2021/10/29 04:21:24;;;;;;;19.47;14.80;;;8.10;99.90;;;;;;5071390;28;20639;-63
2021/10/29 04:23:50;;;;;;;27.27;15.87;;;8.10;99.90;;;;;;5071175;28;20639;-63
2021/10/29 04:26:15;;;;;;;24.17;16.77;;;8.10;99.90;;;;;;5071443;28;20201;-63
2021/10/29 04:28:42;;;;;;;24.20;16.20;;;8.10;99.90;;;;;;5071251;28;20170;-63
2021/10/29 04:31:15;;;;;;;25.73;15.57;;;8.10;99.90;;;;;;5071267;28;20158;-63
2021/10/29 04:33:40;;;;;;;24.63;16.27;;;8.10;99.90;;;;;;5070979;28;20651;-63
2021/10/29 04:36:06;;;;;;;20.20;15.00;;;8.10;99.90;;;;;;5071509;28;20248;-63
2021/10/29 04:38:32;;;;;;;20.87;15.60;;;8.10;99.90;;;;;;5071115;28;20182;-63
2021/10/29 04:40:57;;;;;;;22.83;15.40;;;8.10;99.90;;;;;;5071084;28;20170;-63
2021/10/29 04:43:23;;;;;;;24.97;15.17;;;8.10;99.90;;;;;;5070960;28;20186;-63
2021/10/29 04:45:48;;;;;;;20.47;16.93;;;8.10;99.90;;;;;;5071147;28;20280;-63
2021/10/29 04:48:14;;;;;;;23.10;17.60;;;8.10;99.90;;;;;;5071048;28;20595;-63
2021/10/29 04:50:40;;;;;;;24.10;16.30;;;8.10;99.90;;;;;;5070873;28;20167;-63
2021/10/29 04:53:05;;;;;;;25.60;17.67;;;8.10;99.90;;;;;;5071017;28;20186;-62
2021/10/29 04:55:31;;;;;;;23.53;17.90;;;8.10;99.90;;;;;;5071083;28;20214;-63
2021/10/29 04:57:57;;;;;;;26.53;17.93;;;8.10;99.90;;;;;;5070976;28;20178;-63
2021/10/29 05:00:24;;;;;;;24.43;16.53;;;8.20;99.90;;;;;;5073378;28;20251;-63
2021/10/29 05:02:51;;;;;;;22.63;17.03;;;8.20;99.90;;;;;;5074695;28;20197;-63
2021/10/29 05:05:17;;;;;;;24.53;18.23;;;8.10;99.90;;;;;;5074824;28;20572;-63
2021/10/29 05:07:43;;;;;;;30.10;16.93;;;8.20;99.90;;;;;;5075010;28;20259;-63
2021/10/29 05:10:09;;;;;;;27.33;17.07;;;8.20;99.90;;;;;;5074531;28;20552;-63
2021/10/29 05:12:34;;;;;;;22.07;15.87;;;8.10;99.90;;;;;;5075026;28;20233;-63
2021/10/29 05:15:00;;;;;;;23.10;17.43;;;8.10;99.90;;;;;;5074774;28;20189;-63
2021/10/29 05:17:26;;;;;;;23.53;16.20;;;8.10;99.90;;;;;;5074698;28;20192;-63
2021/10/29 05:19:51;;;;;;;27.43;16.57;;;8.10;99.90;;;;;;5074083;28;20166;-63
2021/10/29 05:22:17;;;;;;;29.10;18.40;;;8.10;99.90;;;;;;5074832;28;20169;-63
2021/10/29 05:24:43;;;;;;;24.33;17.33;;;8.10;99.90;;;;;;5074543;28;20194;-63
2021/10/29 05:27:08;;;;;;;26.53;17.87;;;8.10;99.90;;;;;;5074301;28;20205;-63
2021/10/29 05:29:34;;;;;;;26.90;17.27;;;8.10;99.90;;;;;;5073929;28;20217;-63
2021/10/29 05:32:01;;;;;;;26.63;17.87;;;8.00;99.90;;;;;;5074212;28;20186;-63
2021/10/29 05:34:28;;;;;;;22.20;18.03;;;8.00;99.90;;;;;;5074201;28;20648;-63
2021/10/29 05:36:55;;;;;;;27.97;18.30;;;8.00;99.90;;;;;;5074118;28;20182;-63
2021/10/29 05:39:21;;;;;;;35.47;18.03;;;8.00;99.90;;;;;;5074205;28;20181;-64
2021/10/29 05:41:48;;;;;;;26.30;17.90;;;8.00;99.90;;;;;;5073873;28;20226;-62
2021/10/29 05:44:20;;;;;;;28.07;18.17;;;7.90;99.90;;;;;;5074264;28;20224;-63
2021/10/29 05:46:47;;;;;;;26.40;18.40;;;8.00;99.90;;;;;;5073662;28;20208;-64
2021/10/29 05:49:14;;;;;;;26.60;18.30;;;8.00;99.90;;;;;;5073754;28;20181;-64
2021/10/29 05:51:48;;;;;;;22.07;17.30;;;8.00;99.90;;;;;;5073775;28;20216;-63
2021/10/29 05:56:42;;;;;;;25.57;17.43;;;8.00;99.90;;;;;;5073558;28;20232;-63
2021/10/29 05:59:07;;;;;;;21.17;16.03;;;8.00;99.90;;;;;;5073664;28;20202;-63
2021/10/29 06:01:33;;;;;;;28.67;17.60;;;8.00;99.90;;;;;;5073421;28;20682;-63
2021/10/29 06:03:59;;;;;;;23.93;17.87;;;8.00;99.90;;;;;;5073889;28;20193;-63
2021/10/29 06:06:25;;;;;;;26.27;17.20;;;8.00;99.90;;;;;;5073250;28;20534;-62
2021/10/29 06:08:51;;;;;;;29.87;19.67;;;8.10;99.90;;;;;;5071151;28;20178;-63
2021/10/29 06:11:17;;;;;;;22.63;17.37;;;8.10;99.90;;;;;;5072759;28;20174;-63
2021/10/29 06:13:43;;;;;;;25.03;16.73;;;8.10;99.90;;;;;;5073293;28;20261;-63
2021/10/29 06:16:10;;;;;;;30.60;17.00;;;8.10;99.90;;;;;;5073206;28;20248;-63
2021/10/29 06:18:35;;;;;;;28.00;17.03;;;8.20;99.90;;;;;;5073176;28;20190;-63
2021/10/29 06:21:02;;;;;;;29.40;17.33;;;8.20;99.90;;;;;;5072960;28;20214;-63
2021/10/29 06:26:27;;;;;;;30.70;17.93;;;8.20;99.90;;;;;;5049815;28;20206;-64
2021/10/29 06:28:54;;;;;;;26.10;17.60;;;8.20;99.90;;;;;;5072709;28;20655;-62
2021/10/29 06:31:19;;;;;;;28.10;16.23;;;8.20;99.90;;;;;;5073013;28;20257;-63
2021/10/29 06:33:47;;;;;;;25.53;16.83;;;8.30;99.90;;;;;;5072563;28;20206;-62
2021/10/29 06:36:13;;;;;;;26.97;17.50;;;8.30;99.90;;;;;;5073063;28;20277;-62
2021/10/29 06:38:40;;;;;;;23.93;17.03;;;8.30;99.90;;;;;;5072577;28;20516;-63
2021/10/29 06:41:07;;;;;;;23.47;15.67;;;8.30;99.90;;;;;;5072174;28;20615;-64
2021/10/29 06:43:47;;;;;;;32.70;16.40;;;8.30;99.90;;;;;;5072827;28;20257;-63
2021/10/29 06:49:06;;;;;;;23.80;16.53;;;8.40;99.90;;;;;;5072626;28;20241;-64
2021/10/29 07:40:42;;;;;;;16.27;14.33;;;9.30;99.90;;;;;;5071387;28;20197;-64
2021/10/29 07:43:10;;;;;;;26.03;15.47;;;9.40;99.90;;;;;;5071329;28;20177;-65
2021/10/29 07:45:36;;;;;;;20.37;15.43;;;9.50;99.90;;;;;;5070967;28;20218;-65
2021/10/29 07:48:02;;;;;;;18.23;13.47;;;9.60;99.90;;;;;;5071662;28;20206;-63
2021/10/29 07:50:28;;;;;;;21.50;14.40;;;9.70;99.90;;;;;;5070912;28;20178;-63
2021/10/29 07:52:57;;;;;;;17.10;13.50;;;9.70;99.90;;;;;;5071618;28;20869;-64
2021/10/29 07:55:25;;;;;;;17.03;12.90;;;9.80;99.90;;;;;;5071391;28;20198;-65
2021/10/29 07:57:51;;;;;;;15.90;13.40;;;9.80;99.90;;;;;;5071357;28;20277;-64
2021/10/29 08:00:20;;;;;;;17.87;14.47;;;9.90;99.90;;;;;;5071380;28;20181;-65
2021/10/29 08:02:50;;;;;;;18.07;14.20;;;9.90;99.90;;;;;;5071696;28;20181;-65
2021/10/29 08:05:16;;;;;;;15.73;12.50;;;10.00;99.90;;;;;;5071369;28;20287;-65
2021/10/29 08:07:42;;;;;;;14.73;12.33;;;10.10;99.90;;;;;;5071185;28;20201;-65
2021/10/29 08:10:10;;;;;;;14.90;12.73;;;10.20;99.90;;;;;;5071321;28;20178;-64
2021/10/29 08:12:37;;;;;;;17.83;12.93;;;10.20;99.90;;;;;;5071600;28;20197;-64
2021/10/29 08:15:05;;;;;;;13.37;11.93;;;10.20;99.90;;;;;;5070957;28;20198;-64
2021/10/29 08:17:33;;;;;;;16.07;12.87;;;10.20;99.90;;;;;;5070864;28;20174;-65
2021/10/29 08:19:59;;;;;;;16.17;11.87;;;10.30;99.90;;;;;;5070610;28;20197;-65
2021/10/29 08:22:25;;;;;;;21.00;13.47;;;10.30;99.90;;;;;;5086945;28;20723;-65
2021/10/29 08:24:51;;;;;;;15.17;13.07;;;10.20;99.90;;;;;;5071052;28;20206;-65
2021/10/29 08:27:17;;;;;;;17.80;12.67;;;10.20;99.90;;;;;;5071400;28;20194;-65
2021/10/29 08:29:43;;;;;;;14.07;12.53;;;10.30;99.90;;;;;;5070480;28;20186;-65
2021/10/29 08:32:11;;;;;;;15.47;13.67;;;10.30;99.90;;;;;;5071439;28;20170;-65
2021/10/29 08:34:37;;;;;;;14.63;12.93;;;10.40;99.90;;;;;;5071921;28;20233;-65
2021/10/29 08:37:05;;;;;;;15.67;11.70;;;10.50;99.90;;;;;;5075285;28;20231;-64
2021/10/29 08:39:35;;;;;;;16.00;13.30;;;10.60;99.90;;;;;;5074672;28;20192;-64
2021/10/29 08:42:02;;;;;;;15.97;12.27;;;10.70;99.90;;;;;;5075198;28;20174;-64
2021/10/29 08:44:29;;;;;;;16.53;12.53;;;10.90;99.90;;;;;;5074586;28;20182;-65
2021/10/29 08:47:00;;;;;;;12.80;11.50;;;11.00;99.90;;;;;;5075006;28;20198;-65
2021/10/29 08:49:26;;;;;;;13.70;12.30;;;11.10;99.90;;;;;;5074620;28;20257;-65
2021/10/29 08:51:52;;;;;;;15.73;11.73;;;11.20;99.90;;;;;;5074465;28;20243;-65
2021/10/29 08:54:19;;;;;;;13.00;10.97;;;11.30;99.90;;;;;;5075087;28;20174;-64
2021/10/29 08:56:45;;;;;;;13.60;11.67;;;11.50;99.90;;;;;;5074770;28;20182;-65
2021/10/29 08:59:19;;;;;;;12.40;11.10;;;11.90;99.90;;;;;;5074540;28;20742;-65
2021/10/29 09:01:55;;;;;;;12.23;10.97;;;12.40;99.90;;;;;;5074290;28;20961;-65
2021/10/29 09:04:50;;;;;;;13.20;10.97;;;12.80;99.90;;;;;;5073238;28;20177;-65
2021/10/29 09:32:44;;;;;;;11.20;10.20;;;12.70;99.90;;;;;;5074171;28;20221;-65
2021/10/29 09:35:14;;;;;;;10.37;9.37;;;12.80;99.90;;;;;;5073983;28;20685;-65
2021/10/29 09:37:57;;;;;;;11.37;9.97;;;12.90;99.90;;;;;;5073958;28;20177;-64
2021/10/29 09:40:25;;;;;;;12.47;9.67;;;12.90;99.90;;;;;;5073613;28;20182;-64
2021/10/29 09:42:53;;;;;;;10.70;9.03;;;13.00;99.90;;;;;;5074037;28;20170;-65
2021/10/29 09:45:25;;;;;;;10.63;9.63;;;13.00;99.90;;;;;;5084395;22;20274;-65
2021/10/29 09:48:21;;;;;;;10.97;9.80;;;13.00;99.90;;;;;;5093694;28;20581;-64
2021/10/29 09:50:58;;;;;;;10.43;9.43;;;13.10;99.90;;;;;;5093911;28;20598;-64
2021/10/29 09:56:45;;;;;;;9.83;8.83;;;13.30;99.90;;;;;;5105570;28;20269;-65
2021/10/29 09:58:58;;;;;;;9.73;8.83;;;13.40;99.90;;;;;;5103094;28;20173;-65
2021/10/29 10:01:28;;;;;;;9.33;8.53;;;13.50;99.90;;;;;;5093965;28;20537;-64
2021/10/29 10:03:54;;;;;;;10.13;9.30;;;13.60;99.90;;;;;;5101589;28;20208;-64
2021/10/29 10:06:24;;;;;;;10.03;9.03;;;13.70;99.90;;;;;;5114478;28;20660;-64
2021/10/29 10:08:52;;;;;;;10.63;9.60;;;13.90;99.90;;;;;;5106306;28;20293;-64
2021/10/29 10:11:19;;;;;;;10.20;9.20;;;14.00;99.90;;;;;;5093623;28;20173;-64
2021/10/29 10:13:47;;;;;;;10.87;9.47;;;14.00;99.90;;;;;;5099638;28;20264;-64
2021/10/29 10:16:14;;;;;;;10.33;9.30;;;14.10;99.90;;;;;;5111804;28;20601;-64
2021/10/29 10:18:40;;;;;;;9.80;8.90;;;14.40;99.90;;;;;;5093559;28;20690;-64
2021/10/29 10:21:12;;;;;;;9.43;8.40;;;15.00;99.90;;;;;;5093514;28;20257;-64
2021/10/29 10:23:42;;;;;;;9.03;8.13;;;15.70;99.90;;;;;;5113701;27;20214;-64
2021/10/29 10:45:43;;;;;;;8.20;7.50;;;15.90;99.90;;;;;;5104521;28;20235;-65
2021/10/29 10:48:11;;;;;;;8.20;7.57;;;15.80;99.90;;;;;;5113440;28;20214;-65
2021/10/29 10:50:41;;;;;;;8.60;7.80;;;15.90;99.90;;;;;;5100153;28;20174;-66
2021/10/29 10:53:13;;;;;;;7.90;7.30;;;15.90;99.90;;;;;;5096195;28;20172;-64
2021/10/29 10:58:48;;;;;;;8.03;7.40;;;15.80;99.90;;;;;;5110547;28;20537;-64
2021/10/29 11:01:40;;;;;;;9.47;8.47;;;15.80;99.90;;;;;;5113095;27;20188;-65
2021/10/29 11:07:03;;;;;;;7.70;7.00;;;16.00;99.90;;;;;;5092486;28;20201;-65
2021/10/29 11:09:56;;;;;;;7.60;7.00;;;16.30;99.90;;;;;;5108095;28;20656;-65
2021/10/29 11:12:44;;;;;;;7.10;6.60;;;16.70;99.90;;;;;;5112142;28;20168;-65
2021/10/29 11:15:24;;;;;;;7.30;6.70;;;17.20;99.90;;;;;;5058658;28;20198;-65
2021/10/29 11:17:58;;;;;;;7.20;6.60;;;17.50;99.90;;;;;;5079897;28;20187;-65
2021/10/29 11:20:40;;;;;;;7.47;6.87;;;17.60;99.90;;;;;;5112665;28;20193;-65
2021/10/29 11:23:08;;;;;;;8.57;7.87;;;17.60;99.90;;;;;;5106928;28;20173;-64
2021/10/29 11:25:50;;;;;;;7.67;6.90;;;17.30;99.90;;;;;;5090848;28;20197;-65
2021/10/29 11:28:18;;;;;;;7.60;7.00;;;17.10;99.90;;;;;;5098554;28;20207;-65
2021/10/29 11:30:44;;;;;;;7.40;6.80;;;16.80;99.90;;;;;;5112214;28;20211;-65
2021/10/29 11:33:10;;;;;;;7.63;7.03;;;16.50;99.90;;;;;;5107319;27;20173;-65
2021/10/29 11:35:36;;;;;;;11.87;7.03;;;16.40;99.90;;;;;;5091949;28;20666;-64
2021/10/29 11:38:05;;;;;;;8.30;7.63;;;16.30;99.90;;;;;;5093851;28;20175;-65
2021/10/29 11:40:31;;;;;;;7.87;7.20;;;16.20;99.90;;;;;;5110864;28;20173;-65
2021/10/29 11:42:57;;;;;;;6.87;6.37;;;16.20;99.90;;;;;;5091965;28;20181;-65
2021/10/29 11:45:32;;;;;;;8.23;7.60;;;16.20;99.90;;;;;;5091890;28;20213;-65
2021/10/29 11:47:57;;;;;;;7.33;6.63;;;16.30;99.90;;;;;;5104541;28;20703;-65
2021/10/29 11:50:24;;;;;;;7.07;6.57;;;16.40;99.90;;;;;;5091798;28;20170;-65
2021/10/29 11:52:49;;;;;;;7.10;6.60;;;16.50;99.90;;;;;;5092043;28;20169;-65
2021/10/29 11:58:18;;;;;;;7.07;6.47;;;17.20;99.90;;;;;;5112269;28;20613;-65
2021/10/29 12:06:19;;;;;;;6.27;5.90;;;18.60;99.90;;;;;;5071458;28;20278;-65
2021/10/29 12:08:45;;;;;;;6.77;6.27;;;18.90;99.90;;;;;;5075663;28;20241;-64
2021/10/29 12:11:11;;;;;;;7.20;6.70;;;19.00;99.90;;;;;;5111767;28;20195;-65
2021/10/29 12:13:42;;;;;;;7.20;6.50;;;19.10;99.90;;;;;;5111551;28;20823;-65
2021/10/29 12:16:17;;;;;;;6.37;5.93;;;19.20;99.90;;;;;;5091706;28;20276;-65
2021/10/29 12:18:55;;;;;;;6.63;6.03;;;19.10;99.90;;;;;;5091610;28;20168;-64
2021/10/29 12:21:23;;;;;;;9.83;6.87;;;18.70;99.90;;;;;;5111988;28;20176;-64
2021/10/29 12:23:51;;;;;;;6.70;6.20;;;18.40;99.90;;;;;;5110761;28;20284;-64
2021/10/29 12:26:28;;;;;;;7.07;6.47;;;18.10;99.90;;;;;;5091422;28;20204;-65
2021/10/29 12:28:57;;;;;;;8.27;7.50;;;17.90;99.90;;;;;;5091746;28;20204;-64
2021/10/29 12:31:46;;;;;;;6.23;5.73;;;17.80;99.90;;;;;;5093767;28;20260;-65
2021/10/29 12:36:29;;;;;;;6.40;6.00;;;17.80;99.90;;;;;;5091574;28;20196;-65
2021/10/29 12:37:42;;;;;;;6.20;5.80;;;17.70;99.90;;;;;;5094523;28;20193;-65
2021/10/29 12:59:15;;;;;;;6.77;6.20;;;17.90;99.90;;;;;;5099143;28;20656;-65
2021/10/29 13:02:01;;;;;;;6.13;5.63;;;18.00;99.90;;;;;;5103178;28;20177;-65
2021/10/29 13:04:43;;;;;;;6.00;5.70;;;18.10;99.90;;;;;;5103923;28;20177;-65
2021/10/29 13:07:09;;;;;;;5.63;5.23;;;18.50;99.90;;;;;;5100641;28;20266;-65
2021/10/29 13:09:37;;;;;;;6.40;5.93;;;18.90;99.90;;;;;;5099938;28;20643;-65
2021/10/29 13:12:22;;;;;;;6.73;6.23;;;19.30;99.90;;;;;;5098975;28;20169;-65
2021/10/29 13:14:55;;;;;;;6.47;5.57;;;19.70;99.90;;;;;;5107933;28;20485;-65
2021/10/29 13:17:30;;;;;;;5.93;5.53;;;20.30;99.90;;;;;;5091174;28;20166;-65
2021/10/29 13:25:57;;;;;;;6.20;5.70;;;21.30;99.90;;;;;;5114451;28;20215;-65
2021/10/29 13:36:30;;;;;;;5.43;5.10;;;20.60;99.90;;;;;;5098422;28;20226;-65
2021/10/29 14:01:03;;;;;;;5.80;5.40;;;20.20;99.90;;;;;;5103818;28;20180;-65
2021/10/29 14:30:15;;;;;;;5.87;5.47;;;19.50;99.90;;;;;;5100428;28;20661;-65
2021/10/29 14:33:26;;;;;;;5.87;5.37;;;19.40;99.90;;;;;;5109963;28;20208;-65
2021/10/29 14:35:34;;;;;;;5.40;5.10;;;19.40;99.90;;;;;;5096158;28;20205;-65
2021/10/29 14:43:09;;;;;;;5.50;5.20;;;19.40;99.90;;;;;;5113677;28;20207;-65
2021/10/29 14:45:42;;;;;;;5.50;5.20;;;19.30;99.90;;;;;;5072588;28;20263;-64
2021/10/29 15:49:19;;;;;;;6.53;6.07;;;16.90;99.90;;;;;;5071751;28;20198;-67
2021/10/29 15:51:54;;;;;;;5.90;5.50;;;16.80;99.90;;;;;;5084084;28;20738;-67
2021/10/29 15:54:21;;;;;;;6.60;6.00;;;16.70;99.90;;;;;;5071891;28;20174;-67
2021/10/29 15:56:53;;;;;;;6.40;6.00;;;16.60;99.90;;;;;;5071441;28;20235;-67
2021/10/29 16:17:55;;;;;;;7.07;6.57;;;15.90;99.90;;;;;;5071114;28;20239;-67
2021/10/29 16:20:22;;;;;;;6.90;6.40;;;15.80;99.90;;;;;;5071019;28;20174;-67
2021/10/29 16:22:49;;;;;;;7.50;6.80;;;15.70;99.90;;;;;;5071297;28;20178;-65
2021/10/29 16:25:20;;;;;;;6.33;5.93;;;15.60;99.90;;;;;;5071205;28;20640;-67
2021/10/29 16:30:12;;;;;;;6.20;5.80;;;15.40;99.90;;;;;;5070840;28;20162;-65
2021/10/29 16:35:22;;;;;;;6.40;5.97;;;15.30;99.90;;;;;;5071001;28;20255;-65
2021/10/29 16:37:47;;;;;;;6.07;5.60;;;15.30;99.90;;;;;;5071138;28;20175;-67
2021/10/29 16:40:14;;;;;;;7.93;7.20;;;15.30;99.90;;;;;;5070942;28;20188;-66
2021/10/29 16:42:41;;;;;;;6.80;6.30;;;15.30;99.90;;;;;;5070977;28;20604;-67
2021/10/29 16:45:08;;;;;;;6.33;5.80;;;15.40;99.90;;;;;;5070919;28;20178;-66
2021/10/29 16:47:35;;;;;;;7.20;6.50;;;15.40;99.90;;;;;;5070988;28;20217;-66
2021/10/29 16:50:05;;;;;;;6.37;5.90;;;15.40;99.90;;;;;;5070612;28;20224;-66
2021/10/29 16:52:31;;;;;;;6.80;6.40;;;15.40;99.90;;;;;;5071017;28;20166;-66
2021/10/29 16:54:57;;;;;;;6.60;6.10;;;15.50;99.90;;;;;;5071159;28;20218;-67
2021/10/29 16:57:22;;;;;;;6.80;6.30;;;15.40;99.90;;;;;;5074734;28;20202;-67
2021/10/29 16:59:48;;;;;;;6.50;6.00;;;15.30;99.90;;;;;;5073447;28;20587;-67
2021/10/29 17:02:14;;;;;;;6.87;6.33;;;15.30;99.90;;;;;;5074922;28;20186;-66
2021/10/29 17:04:39;;;;;;;7.27;6.30;;;15.20;99.90;;;;;;5074518;28;20181;-67
2021/10/29 17:07:06;;;;;;;6.87;6.27;;;15.20;99.90;;;;;;5074900;28;20205;-66
2021/10/29 17:09:32;;;;;;;7.10;6.50;;;15.10;99.90;;;;;;5073935;28;20177;-66
2021/10/29 17:11:57;;;;;;;7.17;6.70;;;15.10;99.90;;;;;;5074868;28;20170;-67
2021/10/29 17:14:23;;;;;;;7.27;6.67;;;15.10;99.90;;;;;;5074478;28;20716;-65
2021/10/29 17:16:49;;;;;;;7.10;6.67;;;15.10;99.90;;;;;;5074743;28;20603;-67
2021/10/29 17:19:15;;;;;;;6.90;6.40;;;15.10;99.90;;;;;;5074241;28;20189;-65
2021/10/29 17:21:41;;;;;;;6.90;6.40;;;15.20;99.90;;;;;;5074504;28;20170;-67
2021/10/29 17:24:07;;;;;;;6.97;6.37;;;15.20;99.90;;;;;;5074451;28;20177;-67
2021/10/29 17:26:34;;;;;;;7.10;6.60;;;15.20;99.90;;;;;;5074502;28;20194;-67
2021/10/29 17:29:00;;;;;;;7.07;6.57;;;15.20;99.90;;;;;;5073974;28;20233;-66
2021/10/29 17:31:26;;;;;;;6.90;6.40;;;15.20;99.90;;;;;;5074704;28;20216;-67
2021/10/29 17:33:52;;;;;;;6.70;6.30;;;15.20;99.90;;;;;;5074052;28;20174;-66
2021/10/29 17:36:17;;;;;;;7.07;6.57;;;15.10;99.90;;;;;;5074282;28;20190;-66
2021/10/29 17:38:44;;;;;;;7.03;6.60;;;15.10;99.90;;;;;;5073935;28;20239;-67